首页
METAR-TAF:

METAR-TAF

机场 :

馬紹爾群島國際機場

馬久羅, 馬紹爾群島

纬度: 07-04N, 经度: 171-17E, 海拔: 2米

当前天气观测

该预报发布于27分钟前的04:56 UTC
风速6节,风向
温度 29°C
湿度 79%
气压 1009 hPa
能見度: 24.1公里
少量云层高于1500英尺
散云层高于5000英尺
散云层高于12000英尺
多云层高于30000英尺

METAR: PKMJ 190456Z 10006KT 15SM FEW015 SCT050 SCT120 BKN300 29/25 A2980

时间: 17:23 (05:23 UTC)

预报

该预报发布于2小时和12分钟前的03:11 UTC
预报有效从19日的 03点(UTC)到 19日的 24点(UTC)
风速8节,风向南转南东
能見度: 10公里
散云层高于1500英尺
散云层高于5000英尺
多云层高于12000英尺
附近有阵雨
从 19日的 0900点(UTC)
风速7节,风向
能見度: 10公里
少量云层高于1500英尺
散云层高于5000英尺
散云层高于12000英尺
附近有阵雨

TAF: PKMJ 190311Z 1903/1924 16008KT P6SM VCSH SCT015 SCT050 BKN120 FM190900 09007KT P6SM VCSH FEW015 SCT050 SCT120

超过4000个机场的气象观测和天气预报(METAR&TAF报告)。

可查询的气象台以黄色和红色小点在地图上表示。

将鼠标移到小点上方,可查看气象台名称。

然后点击查看天气观测和预报。

如需切换地图:点击带黑十字的绿色按钮放大地图;点击带横线的绿色按钮缩小地图;或者点击绿色箭头查看邻近地区的地图。


METAR-TAF: